Ada, Michigan
Current Conditions -  °F | °C
As of 10:53 AM on Monday 26 Jan 2015 (Local Time) from KGRR Reporting Station
Broken Clouds Broken Clouds  
Wind Chill:   Ceiling: 23000
Heat Index: 16°   Visibility: 10mi
Dew Point:   Wind: 9mph
Humidity: 74%   Direction: 100°E
Pressure: 29.97"   Gusts: NA
Location:  42.95°N, 85.49°W
Report Text: KGRR 261553Z 10008KT 10SM FEW095 BKN230 M09/M13 A2997 RMK AO2 SLP163 T10891128
Loading
Personal Weather Stations






























Interactive Weather Map New forecast layout! Learn more

10-Day Weather Forecast

Advertisements
Track Severe Weather on mobile